< < Back
Terminal Aerodrome Forecast


Current Version              Previous Versions:   1  2  3  4  5  6  7  8  9  

Terminal Aerodrome Forecast

770
FTUS42 KGSP 172334
TAFAVL
TAF
KAVL 172334Z 1800/1824 34010KT P6SM FEW200
     FM181100 33007G14KT P6SM SCT070 BKN110
     FM181700 33003KT P6SM BKN070=

Latest METAR

661
SAUS70 KWBC 180658
MTRAVL
METAR KAVL 180654Z AUTO 35012KT 10SM CLR 02/M01 A3012 RMK AO2 SLP201
T00221011


USA.gov is the U.S. government's official web portal to all federal, state and local government web resources and services.